DAOB/TID METAR and TAF weather

Enter ICAO airport designator
Station Type Date Time Source
DAOB METAR 2018/07/19 07:00 UTC NOAA

DAOB 190700Z 00000KT 9999 FEW030 SCT093 26/13 Q1021


Station Type Date Time Source
DAOB Decoded METAR 2018/07/19 07:00 UTC NOAA

Tiaret, Algeria (DAOB) 35-15N 001-26E 1127M
Jul 19, 2018 - 03:00 AM EDT / 2018.07.19 0700 UTC
Wind: Calm:0
Visibility: greater than 7 mile(s):0
Sky conditions: partly cloudy
Temperature: 78 F (26 C)
Dew Point: 55 F (13 C)
Relative Humidity: 44%
Pressure (altimeter): 30.15 in. Hg (1021 hPa)
ob: DAOB 190700Z 00000KT 9999 FEW030 SCT093 26/13 Q1021
cycle: 7

Station Type Date Time Source
DAOB TAF 2018/07/19 06:33 UTC NOAA

TAF DAOB 190500Z 1906/2006 VRB02KT 9999 FEW030
BECMG 1908/1911 25014KT
BECMG 1912/1915 32014KT PROB30
TEMPO 1915/1921 32015G30KT -TSRA FEW023CB
BECMG 1921/1924 VRB02KT


Example: see airport list